sensor_id;sensor_type;location;lat;lon;timestamp;pressure;altitude;pressure_sealevel;temperature;humidity
82621;BME280;72291;55.002;-1.592;2024-01-15T00:02:13;100138.74;;;-2.49;53.71
82621;BME280;72291;55.002;-1.592;2024-01-15T00:04:39;100144.94;;;-2.99;54.70
82621;BME280;72291;55.002;-1.592;2024-01-15T00:07:04;100138.13;;;-3.31;55.15
82621;BME280;72291;55.002;-1.592;2024-01-15T00:09:29;100143.31;;;-3.11;54.96
82621;BME280;72291;55.002;-1.592;2024-01-15T00:11:54;100136.69;;;-3.33;54.40
82621;BME280;72291;55.002;-1.592;2024-01-15T00:14:20;100130.59;;;-3.12;53.41
82621;BME280;72291;55.002;-1.592;2024-01-15T00:16:45;100121.67;;;-1.70;51.05
82621;BME280;72291;55.002;-1.592;2024-01-15T00:19:10;100129.94;;;-2.79;52.62
82621;BME280;72291;55.002;-1.592;2024-01-15T00:21:36;100130.32;;;-2.17;52.11
82621;BME280;72291;55.002;-1.592;2024-01-15T00:24:01;100129.47;;;-2.34;51.76
82621;BME280;72291;55.002;-1.592;2024-01-15T00:26:27;100129.87;;;-2.61;51.96
82621;BME280;72291;55.002;-1.592;2024-01-15T00:28:51;100125.85;;;-3.31;53.06
82621;BME280;72291;55.002;-1.592;2024-01-15T00:31:17;100128.67;;;-3.25;53.14
82621;BME280;72291;55.002;-1.592;2024-01-15T00:33:42;100125.89;;;-2.45;51.60
82621;BME280;72291;55.002;-1.592;2024-01-15T00:36:08;100128.72;;;-3.03;53.33
82621;BME280;72291;55.002;-1.592;2024-01-15T00:38:33;100124.85;;;-2.22;52.60
82621;BME280;72291;55.002;-1.592;2024-01-15T00:40:58;100122.78;;;-1.81;52.44
82621;BME280;72291;55.002;-1.592;2024-01-15T00:43:23;100116.07;;;-2.20;52.19
82621;BME280;72291;55.002;-1.592;2024-01-15T00:45:48;100119.53;;;-2.26;52.75
82621;BME280;72291;55.002;-1.592;2024-01-15T00:48:14;100117.33;;;-2.37;52.66
82621;BME280;72291;55.002;-1.592;2024-01-15T00:50:40;100116.76;;;-2.87;54.37
82621;BME280;72291;55.002;-1.592;2024-01-15T00:53:04;100118.33;;;-2.79;53.85
82621;BME280;72291;55.002;-1.592;2024-01-15T00:55:30;100118.90;;;-2.69;53.31
82621;BME280;72291;55.002;-1.592;2024-01-15T00:57:55;100114.02;;;-2.40;52.06
82621;BME280;72291;55.002;-1.592;2024-01-15T01:00:21;100113.89;;;-1.39;50.92
82621;BME280;72291;55.002;-1.592;2024-01-15T01:02:46;100117.02;;;-2.66;52.89
82621;BME280;72291;55.002;-1.592;2024-01-15T01:05:11;100111.64;;;-1.94;50.93
82621;BME280;72291;55.002;-1.592;2024-01-15T01:07:36;100106.63;;;-1.37;49.70
82621;BME280;72291;55.002;-1.592;2024-01-15T01:10:02;100104.59;;;-1.47;49.75
82621;BME280;72291;55.002;-1.592;2024-01-15T01:12:27;100101.04;;;-1.27;49.41
82621;BME280;72291;55.002;-1.592;2024-01-15T01:14:53;100102.71;;;-2.13;50.92
82621;BME280;72291;55.002;-1.592;2024-01-15T01:17:17;100098.87;;;-1.78;50.86
82621;BME280;72291;55.002;-1.592;2024-01-15T01:19:43;100089.85;;;-1.56;50.28
82621;BME280;72291;55.002;-1.592;2024-01-15T01:22:08;100081.96;;;-1.82;50.54
82621;BME280;72291;55.002;-1.592;2024-01-15T01:24:33;100082.89;;;-0.99;49.28
82621;BME280;72291;55.002;-1.592;2024-01-15T01:26:58;100083.34;;;-1.56;49.77
82621;BME280;72291;55.002;-1.592;2024-01-15T01:29:24;100078.31;;;-1.31;49.94
82621;BME280;72291;55.002;-1.592;2024-01-15T01:31:49;100069.47;;;-1.31;48.86
82621;BME280;72291;55.002;-1.592;2024-01-15T01:34:15;100075.31;;;-1.09;49.27
82621;BME280;72291;55.002;-1.592;2024-01-15T01:36:40;100077.99;;;-2.01;51.72
82621;BME280;72291;55.002;-1.592;2024-01-15T01:39:05;100080.72;;;-2.48;52.33
82621;BME280;72291;55.002;-1.592;2024-01-15T01:41:30;100082.18;;;-1.89;51.73
82621;BME280;72291;55.002;-1.592;2024-01-15T01:43:55;100080.92;;;-2.42;52.02
82621;BME280;72291;55.002;-1.592;2024-01-15T01:46:21;100091.87;;;-2.83;52.44
82621;BME280;72291;55.002;-1.592;2024-01-15T01:48:46;100095.52;;;-3.42;54.36
82621;BME280;72291;55.002;-1.592;2024-01-15T01:51:13;100088.32;;;-3.42;55.00
82621;BME280;72291;55.002;-1.592;2024-01-15T01:53:37;100087.84;;;-3.42;54.02
82621;BME280;72291;55.002;-1.592;2024-01-15T01:56:03;100079.89;;;-2.92;54.27
82621;BME280;72291;55.002;-1.592;2024-01-15T01:58:27;100075.13;;;-2.18;53.00
82621;BME280;72291;55.002;-1.592;2024-01-15T02:00:53;100070.46;;;-2.25;52.30
82621;BME280;72291;55.002;-1.592;2024-01-15T02:03:19;100079.54;;;-2.90;53.95
82621;BME280;72291;55.002;-1.592;2024-01-15T02:05:44;100077.33;;;-2.97;55.69
82621;BME280;72291;55.002;-1.592;2024-01-15T02:08:08;100072.59;;;-2.31;54.01
82621;BME280;72291;55.002;-1.592;2024-01-15T02:10:34;100074.06;;;-3.15;55.42
82621;BME280;72291;55.002;-1.592;2024-01-15T02:12:59;100075.93;;;-2.75;54.47
82621;BME280;72291;55.002;-1.592;2024-01-15T02:15:24;100081.81;;;-3.80;56.95
82621;BME280;72291;55.002;-1.592;2024-01-15T02:17:59;100082.12;;;-3.62;57.36
82621;BME280;72291;55.002;-1.592;2024-01-15T02:20:15;100085.13;;;-2.66;55.82
82621;BME280;72291;55.002;-1.592;2024-01-15T02:22:40;100080.39;;;-2.57;55.85
82621;BME280;72291;55.002;-1.592;2024-01-15T02:25:06;100072.92;;;-3.00;56.18
82621;BME280;72291;55.002;-1.592;2024-01-15T02:27:31;100071.65;;;-2.83;56.70
82621;BME280;72291;55.002;-1.592;2024-01-15T02:29:56;100065.96;;;-2.84;56.31
82621;BME280;72291;55.002;-1.592;2024-01-15T02:32:21;100061.40;;;-3.34;57.82
82621;BME280;72291;55.002;-1.592;2024-01-15T02:34:46;100061.16;;;-3.70;59.72
82621;BME280;72291;55.002;-1.592;2024-01-15T02:37:12;100056.84;;;-3.56;59.88
82621;BME280;72291;55.002;-1.592;2024-01-15T02:39:37;100056.82;;;-4.02;61.53
82621;BME280;72291;55.002;-1.592;2024-01-15T02:42:02;100056.23;;;-3.38;60.84
82621;BME280;72291;55.002;-1.592;2024-01-15T02:44:28;100058.57;;;-4.23;62.55
82621;BME280;72291;55.002;-1.592;2024-01-15T02:46:53;100058.41;;;-3.89;63.82
82621;BME280;72291;55.002;-1.592;2024-01-15T02:49:18;100057.65;;;-4.12;63.75
82621;BME280;72291;55.002;-1.592;2024-01-15T02:51:44;100057.25;;;-3.64;62.33
82621;BME280;72291;55.002;-1.592;2024-01-15T02:54:09;100047.62;;;-3.69;62.13
82621;BME280;72291;55.002;-1.592;2024-01-15T02:56:34;100041.33;;;-3.86;62.25
82621;BME280;72291;55.002;-1.592;2024-01-15T02:58:59;100043.98;;;-4.19;63.05
82621;BME280;72291;55.002;-1.592;2024-01-15T03:01:25;100038.00;;;-3.67;62.28
82621;BME280;72291;55.002;-1.592;2024-01-15T03:03:50;100040.15;;;-3.65;61.94
82621;BME280;72291;55.002;-1.592;2024-01-15T03:06:15;100037.12;;;-4.21;62.65
82621;BME280;72291;55.002;-1.592;2024-01-15T03:08:40;100033.73;;;-3.82;62.18
82621;BME280;72291;55.002;-1.592;2024-01-15T03:11:06;100040.55;;;-3.92;62.22
82621;BME280;72291;55.002;-1.592;2024-01-15T03:13:31;100033.07;;;-3.93;62.96
82621;BME280;72291;55.002;-1.592;2024-01-15T03:15:57;100030.91;;;-3.94;62.77
82621;BME280;72291;55.002;-1.592;2024-01-15T03:18:22;100026.99;;;-3.93;62.23
82621;BME280;72291;55.002;-1.592;2024-01-15T03:20:47;100028.89;;;-4.08;62.60
82621;BME280;72291;55.002;-1.592;2024-01-15T03:23:12;100034.40;;;-3.61;62.00
82621;BME280;72291;55.002;-1.592;2024-01-15T03:25:38;100045.52;;;-4.11;62.61
82621;BME280;72291;55.002;-1.592;2024-01-15T03:28:04;100041.46;;;-4.05;62.23
82621;BME280;72291;55.002;-1.592;2024-01-15T03:30:28;100039.52;;;-3.94;61.87
82621;BME280;72291;55.002;-1.592;2024-01-15T03:32:53;100041.95;;;-4.26;62.76
82621;BME280;72291;55.002;-1.592;2024-01-15T03:35:19;100045.34;;;-4.05;62.65
82621;BME280;72291;55.002;-1.592;2024-01-15T03:37:45;100042.91;;;-3.97;61.98
82621;BME280;72291;55.002;-1.592;2024-01-15T03:40:11;100046.51;;;-3.90;61.16
82621;BME280;72291;55.002;-1.592;2024-01-15T03:42:35;100056.11;;;-4.41;62.87
82621;BME280;72291;55.002;-1.592;2024-01-15T03:45:00;100060.13;;;-4.58;62.28
82621;BME280;72291;55.002;-1.592;2024-01-15T03:47:26;100064.37;;;-4.34;62.47
82621;BME280;72291;55.002;-1.592;2024-01-15T03:49:51;100066.37;;;-4.16;61.49
82621;BME280;72291;55.002;-1.592;2024-01-15T03:52:16;100063.69;;;-3.79;60.90
82621;BME280;72291;55.002;-1.592;2024-01-15T03:54:41;100059.36;;;-3.48;60.69
82621;BME280;72291;55.002;-1.592;2024-01-15T03:57:06;100060.19;;;-4.26;61.31
82621;BME280;72291;55.002;-1.592;2024-01-15T03:59:32;100060.31;;;-3.81;60.70
82621;BME280;72291;55.002;-1.592;2024-01-15T04:01:57;100058.54;;;-3.88;60.69
82621;BME280;72291;55.002;-1.592;2024-01-15T04:04:23;100063.34;;;-4.15;60.70
82621;BME280;72291;55.002;-1.592;2024-01-15T04:06:48;100064.62;;;-3.94;60.49
82621;BME280;72291;55.002;-1.592;2024-01-15T04:09:13;100066.11;;;-4.53;61.49
82621;BME280;72291;55.002;-1.592;2024-01-15T04:11:38;100067.14;;;-3.89;59.87
82621;BME280;72291;55.002;-1.592;2024-01-15T04:14:03;100069.73;;;-3.54;59.22
82621;BME280;72291;55.002;-1.592;2024-01-15T04:16:29;100066.81;;;-4.03;60.13
82621;BME280;72291;55.002;-1.592;2024-01-15T04:18:54;100061.86;;;-3.48;57.46
82621;BME280;72291;55.002;-1.592;2024-01-15T04:21:19;100065.95;;;-4.32;59.20
82621;BME280;72291;55.002;-1.592;2024-01-15T04:23:45;100061.53;;;-4.46;60.00
82621;BME280;72291;55.002;-1.592;2024-01-15T04:26:10;100054.62;;;-3.87;59.62
82621;BME280;72291;55.002;-1.592;2024-01-15T04:28:35;100053.33;;;-3.79;58.29
82621;BME280;72291;55.002;-1.592;2024-01-15T04:31:01;100056.55;;;-3.99;58.93
82621;BME280;72291;55.002;-1.592;2024-01-15T04:33:26;100058.12;;;-3.87;59.26
82621;BME280;72291;55.002;-1.592;2024-01-15T04:35:51;100061.75;;;-4.36;59.80
82621;BME280;72291;55.002;-1.592;2024-01-15T04:38:17;100065.83;;;-3.99;59.29
82621;BME280;72291;55.002;-1.592;2024-01-15T04:40:43;100065.37;;;-4.18;59.39
82621;BME280;72291;55.002;-1.592;2024-01-15T04:43:07;100063.64;;;-4.08;59.28
82621;BME280;72291;55.002;-1.592;2024-01-15T04:45:32;100059.59;;;-4.17;58.87
82621;BME280;72291;55.002;-1.592;2024-01-15T04:47:58;100060.19;;;-4.28;58.55
82621;BME280;72291;55.002;-1.592;2024-01-15T04:50:23;100064.43;;;-4.17;58.79
82621;BME280;72291;55.002;-1.592;2024-01-15T04:52:49;100069.23;;;-3.71;57.70
82621;BME280;72291;55.002;-1.592;2024-01-15T04:55:15;100068.65;;;-4.23;58.59
82621;BME280;72291;55.002;-1.592;2024-01-15T04:57:39;100063.93;;;-3.71;57.20
82621;BME280;72291;55.002;-1.592;2024-01-15T05:00:06;100061.55;;;-3.79;57.30
82621;BME280;72291;55.002;-1.592;2024-01-15T05:02:30;100055.54;;;-3.73;57.00
82621;BME280;72291;55.002;-1.592;2024-01-15T05:04:56;100055.40;;;-3.58;56.66
82621;BME280;72291;55.002;-1.592;2024-01-15T05:07:21;100057.34;;;-3.75;57.06
82621;BME280;72291;55.002;-1.592;2024-01-15T05:09:46;100059.00;;;-4.36;57.91
82621;BME280;72291;55.002;-1.592;2024-01-15T05:12:12;100052.68;;;-4.25;58.07
82621;BME280;72291;55.002;-1.592;2024-01-15T05:14:37;100056.98;;;-4.39;58.21
82621;BME280;72291;55.002;-1.592;2024-01-15T05:17:03;100060.78;;;-4.07;57.55
82621;BME280;72291;55.002;-1.592;2024-01-15T05:19:28;100060.45;;;-3.95;57.97
82621;BME280;72291;55.002;-1.592;2024-01-15T05:21:53;100052.72;;;-4.01;56.85
82621;BME280;72291;55.002;-1.592;2024-01-15T05:24:18;100052.85;;;-3.49;55.84
82621;BME280;72291;55.002;-1.592;2024-01-15T05:26:48;100050.06;;;-3.76;56.62
82621;BME280;72291;55.002;-1.592;2024-01-15T05:29:10;100048.07;;;-3.97;57.10
82621;BME280;72291;55.002;-1.592;2024-01-15T05:31:35;100047.41;;;-3.98;57.48
82621;BME280;72291;55.002;-1.592;2024-01-15T05:33:59;100049.03;;;-3.93;56.28
82621;BME280;72291;55.002;-1.592;2024-01-15T05:36:25;100044.96;;;-3.47;55.08
82621;BME280;72291;55.002;-1.592;2024-01-15T05:38:50;100048.03;;;-3.40;55.12
82621;BME280;72291;55.002;-1.592;2024-01-15T05:41:16;100055.65;;;-3.74;55.97
82621;BME280;72291;55.002;-1.592;2024-01-15T05:43:41;100050.80;;;-3.88;55.95
82621;BME280;72291;55.002;-1.592;2024-01-15T05:46:06;100051.56;;;-3.74;56.35
82621;BME280;72291;55.002;-1.592;2024-01-15T05:48:31;100054.33;;;-4.00;56.87
82621;BME280;72291;55.002;-1.592;2024-01-15T05:50:57;100048.33;;;-3.84;56.85
82621;BME280;72291;55.002;-1.592;2024-01-15T05:53:23;100051.25;;;-3.99;57.42
82621;BME280;72291;55.002;-1.592;2024-01-15T05:55:47;100052.37;;;-4.37;57.79
82621;BME280;72291;55.002;-1.592;2024-01-15T05:58:13;100055.27;;;-4.20;57.68
82621;BME280;72291;55.002;-1.592;2024-01-15T06:00:38;100054.75;;;-4.23;57.32
82621;BME280;72291;55.002;-1.592;2024-01-15T06:03:03;100049.05;;;-4.58;57.58
82621;BME280;72291;55.002;-1.592;2024-01-15T06:05:29;100050.90;;;-4.38;57.48
82621;BME280;72291;55.002;-1.592;2024-01-15T06:07:54;100050.84;;;-4.17;57.65
82621;BME280;72291;55.002;-1.592;2024-01-15T06:10:19;100050.23;;;-4.39;58.00
82621;BME280;72291;55.002;-1.592;2024-01-15T06:12:45;100055.45;;;-4.18;56.95
82621;BME280;72291;55.002;-1.592;2024-01-15T06:15:12;100060.99;;;-3.74;56.59
82621;BME280;72291;55.002;-1.592;2024-01-15T06:17:38;100065.35;;;-3.89;56.66
82621;BME280;72291;55.002;-1.592;2024-01-15T06:20:03;100064.03;;;-4.38;56.90
82621;BME280;72291;55.002;-1.592;2024-01-15T06:22:29;100067.11;;;-4.36;57.35
82621;BME280;72291;55.002;-1.592;2024-01-15T06:24:54;100078.80;;;-4.83;58.09
82621;BME280;72291;55.002;-1.592;2024-01-15T06:27:20;100077.57;;;-4.14;57.31
82621;BME280;72291;55.002;-1.592;2024-01-15T06:29:47;100076.45;;;-4.05;56.96
82621;BME280;72291;55.002;-1.592;2024-01-15T06:32:10;100071.62;;;-4.03;55.86
82621;BME280;72291;55.002;-1.592;2024-01-15T06:34:37;100079.41;;;-4.22;56.15
82621;BME280;72291;55.002;-1.592;2024-01-15T06:37:02;100086.06;;;-3.54;55.26
82621;BME280;72291;55.002;-1.592;2024-01-15T06:39:26;100092.12;;;-3.97;55.46
82621;BME280;72291;55.002;-1.592;2024-01-15T06:41:50;100080.81;;;-3.72;54.98
82621;BME280;72291;55.002;-1.592;2024-01-15T06:44:17;100092.73;;;-3.20;53.41
82621;BME280;72291;55.002;-1.592;2024-01-15T06:46:42;100100.18;;;-3.61;54.72
82621;BME280;72291;55.002;-1.592;2024-01-15T06:49:08;100097.23;;;-3.44;53.56
82621;BME280;72291;55.002;-1.592;2024-01-15T06:51:32;100105.02;;;-3.86;54.66
82621;BME280;72291;55.002;-1.592;2024-01-15T06:53:57;100100.81;;;-3.97;55.71
82621;BME280;72291;55.002;-1.592;2024-01-15T06:56:21;100106.90;;;-4.59;57.14
82621;BME280;72291;55.002;-1.592;2024-01-15T06:58:46;100111.09;;;-4.71;56.39
82621;BME280;72291;55.002;-1.592;2024-01-15T07:01:11;100110.16;;;-3.85;55.68
82621;BME280;72291;55.002;-1.592;2024-01-15T07:03:37;100100.27;;;-4.11;56.58
82621;BME280;72291;55.002;-1.592;2024-01-15T07:06:03;100105.57;;;-4.28;56.24
82621;BME280;72291;55.002;-1.592;2024-01-15T07:08:28;100109.07;;;-4.47;56.36
82621;BME280;72291;55.002;-1.592;2024-01-15T07:10:53;100101.01;;;-3.09;53.71
82621;BME280;72291;55.002;-1.592;2024-01-15T07:13:19;100100.86;;;-3.68;55.08
82621;BME280;72291;55.002;-1.592;2024-01-15T07:15:44;100112.44;;;-4.01;55.66
82621;BME280;72291;55.002;-1.592;2024-01-15T07:18:10;100110.83;;;-4.21;56.14
82621;BME280;72291;55.002;-1.592;2024-01-15T07:20:34;100112.10;;;-3.84;54.49
82621;BME280;72291;55.002;-1.592;2024-01-15T07:23:00;100115.17;;;-3.77;54.24
82621;BME280;72291;55.002;-1.592;2024-01-15T07:25:25;100117.65;;;-4.15;55.58
82621;BME280;72291;55.002;-1.592;2024-01-15T07:27:50;100116.31;;;-3.83;55.45
82621;BME280;72291;55.002;-1.592;2024-01-15T07:30:16;100117.91;;;-4.52;56.21
82621;BME280;72291;55.002;-1.592;2024-01-15T07:32:41;100114.39;;;-3.84;54.55
82621;BME280;72291;55.002;-1.592;2024-01-15T07:35:07;100119.06;;;-4.59;55.72
82621;BME280;72291;55.002;-1.592;2024-01-15T07:37:32;100117.55;;;-3.60;54.15
82621;BME280;72291;55.002;-1.592;2024-01-15T07:39:57;100118.47;;;-3.88;54.92
82621;BME280;72291;55.002;-1.592;2024-01-15T07:42:22;100117.25;;;-3.89;54.31
82621;BME280;72291;55.002;-1.592;2024-01-15T07:44:48;100118.25;;;-3.93;54.41
82621;BME280;72291;55.002;-1.592;2024-01-15T07:47:14;100123.29;;;-3.89;54.36
82621;BME280;72291;55.002;-1.592;2024-01-15T07:49:39;100122.76;;;-3.66;52.88
82621;BME280;72291;55.002;-1.592;2024-01-15T07:52:05;100119.23;;;-3.63;53.49
82621;BME280;72291;55.002;-1.592;2024-01-15T07:54:30;100127.97;;;-4.53;55.10
82621;BME280;72291;55.002;-1.592;2024-01-15T07:56:56;100128.23;;;-3.77;53.51
82621;BME280;72291;55.002;-1.592;2024-01-15T07:59:20;100127.37;;;-3.58;52.55
82621;BME280;72291;55.002;-1.592;2024-01-15T08:01:45;100136.70;;;-3.82;53.22
82621;BME280;72291;55.002;-1.592;2024-01-15T08:04:11;100139.68;;;-3.88;53.76
82621;BME280;72291;55.002;-1.592;2024-01-15T08:06:37;100139.87;;;-3.63;53.51
82621;BME280;72291;55.002;-1.592;2024-01-15T08:09:01;100143.53;;;-3.96;53.37
82621;BME280;72291;55.002;-1.592;2024-01-15T08:11:27;100141.31;;;-3.23;51.94
82621;BME280;72291;55.002;-1.592;2024-01-15T08:13:52;100145.19;;;-3.64;52.72
82621;BME280;72291;55.002;-1.592;2024-01-15T08:16:17;100149.11;;;-3.47;52.34
82621;BME280;72291;55.002;-1.592;2024-01-15T08:18:43;100156.98;;;-3.82;52.67
82621;BME280;72291;55.002;-1.592;2024-01-15T08:21:08;100158.04;;;-3.90;52.70
82621;BME280;72291;55.002;-1.592;2024-01-15T08:23:34;100154.78;;;-4.02;53.84
82621;BME280;72291;55.002;-1.592;2024-01-15T08:25:59;100156.95;;;-4.56;53.92
82621;BME280;72291;55.002;-1.592;2024-01-15T08:28:24;100159.23;;;-4.24;54.36
82621;BME280;72291;55.002;-1.592;2024-01-15T08:30:50;100162.59;;;-3.88;53.62
82621;BME280;72291;55.002;-1.592;2024-01-15T08:33:14;100164.28;;;-3.92;53.45
82621;BME280;72291;55.002;-1.592;2024-01-15T08:35:40;100170.90;;;-3.76;53.16
82621;BME280;72291;55.002;-1.592;2024-01-15T08:38:05;100179.22;;;-3.85;54.09
82621;BME280;72291;55.002;-1.592;2024-01-15T08:40:31;100187.40;;;-4.09;54.41
82621;BME280;72291;55.002;-1.592;2024-01-15T08:42:56;100183.67;;;-4.57;55.04
82621;BME280;72291;55.002;-1.592;2024-01-15T08:45:21;100185.46;;;-4.34;55.20
82621;BME280;72291;55.002;-1.592;2024-01-15T08:47:46;100186.62;;;-4.36;54.29
82621;BME280;72291;55.002;-1.592;2024-01-15T08:50:12;100190.94;;;-4.07;53.45
82621;BME280;72291;55.002;-1.592;2024-01-15T08:52:37;100191.51;;;-3.85;53.21
82621;BME280;72291;55.002;-1.592;2024-01-15T08:55:03;100193.03;;;-3.70;52.37
82621;BME280;72291;55.002;-1.592;2024-01-15T08:57:28;100205.00;;;-4.26;53.31
82621;BME280;72291;55.002;-1.592;2024-01-15T08:59:53;100203.07;;;-3.74;53.25
82621;BME280;72291;55.002;-1.592;2024-01-15T09:02:18;100203.84;;;-3.61;52.81
82621;BME280;72291;55.002;-1.592;2024-01-15T09:04:44;100206.46;;;-4.25;53.97
82621;BME280;72291;55.002;-1.592;2024-01-15T09:07:10;100206.36;;;-4.16;54.49
82621;BME280;72291;55.002;-1.592;2024-01-15T09:09:35;100207.60;;;-4.08;52.93
82621;BME280;72291;55.002;-1.592;2024-01-15T09:12:00;100205.27;;;-4.15;53.45
82621;BME280;72291;55.002;-1.592;2024-01-15T09:14:26;100208.95;;;-3.96;52.41
82621;BME280;72291;55.002;-1.592;2024-01-15T09:16:51;100214.78;;;-3.88;52.48
82621;BME280;72291;55.002;-1.592;2024-01-15T09:19:16;100223.68;;;-4.90;54.17
82621;BME280;72291;55.002;-1.592;2024-01-15T09:21:42;100222.41;;;-4.26;53.08
82621;BME280;72291;55.002;-1.592;2024-01-15T09:24:07;100224.16;;;-4.64;53.68
82621;BME280;72291;55.002;-1.592;2024-01-15T09:26:32;100226.96;;;-4.34;52.84
82621;BME280;72291;55.002;-1.592;2024-01-15T09:28:58;100217.99;;;-3.50;51.47
82621;BME280;72291;55.002;-1.592;2024-01-15T09:31:23;100220.34;;;-3.48;51.20
82621;BME280;72291;55.002;-1.592;2024-01-15T09:33:49;100228.79;;;-4.27;52.34
82621;BME280;72291;55.002;-1.592;2024-01-15T09:36:14;100228.63;;;-4.02;52.46
82621;BME280;72291;55.002;-1.592;2024-01-15T09:38:40;100230.35;;;-4.69;53.74
82621;BME280;72291;55.002;-1.592;2024-01-15T09:41:04;100227.18;;;-4.06;52.72
82621;BME280;72291;55.002;-1.592;2024-01-15T09:43:30;100228.02;;;-4.20;52.32
82621;BME280;72291;55.002;-1.592;2024-01-15T09:45:55;100233.75;;;-3.74;52.03
82621;BME280;72291;55.002;-1.592;2024-01-15T09:48:20;100236.83;;;-4.05;52.31
82621;BME280;72291;55.002;-1.592;2024-01-15T09:50:46;100236.97;;;-3.26;51.17
82621;BME280;72291;55.002;-1.592;2024-01-15T09:53:12;100240.50;;;-3.88;51.89
82621;BME280;72291;55.002;-1.592;2024-01-15T09:55:37;100237.63;;;-3.99;52.34
82621;BME280;72291;55.002;-1.592;2024-01-15T09:58:02;100236.18;;;-3.48;50.99
82621;BME280;72291;55.002;-1.592;2024-01-15T10:00:28;100233.04;;;-3.22;50.75
82621;BME280;72291;55.002;-1.592;2024-01-15T10:02:52;100229.85;;;-3.48;51.24
82621;BME280;72291;55.002;-1.592;2024-01-15T10:05:18;100238.20;;;-4.08;52.02
82621;BME280;72291;55.002;-1.592;2024-01-15T10:07:46;100231.41;;;-4.02;51.93
82621;BME280;72291;55.002;-1.592;2024-01-15T10:10:10;100232.84;;;-4.28;52.54
82621;BME280;72291;55.002;-1.592;2024-01-15T10:12:34;100226.94;;;-4.38;53.19
82621;BME280;72291;55.002;-1.592;2024-01-15T10:14:59;100228.28;;;-3.95;52.77
82621;BME280;72291;55.002;-1.592;2024-01-15T10:17:24;100223.40;;;-4.37;53.83
82621;BME280;72291;55.002;-1.592;2024-01-15T10:19:50;100232.14;;;-4.38;53.62
82621;BME280;72291;55.002;-1.592;2024-01-15T10:22:15;100232.19;;;-3.92;53.06
82621;BME280;72291;55.002;-1.592;2024-01-15T10:24:40;100237.26;;;-4.36;53.60
82621;BME280;72291;55.002;-1.592;2024-01-15T10:27:06;100235.12;;;-4.57;53.67
82621;BME280;72291;55.002;-1.592;2024-01-15T10:29:31;100243.70;;;-4.08;53.18
82621;BME280;72291;55.002;-1.592;2024-01-15T10:31:57;100240.77;;;-4.10;52.72
82621;BME280;72291;55.002;-1.592;2024-01-15T10:34:22;100240.29;;;-3.95;52.58
82621;BME280;72291;55.002;-1.592;2024-01-15T10:36:47;100244.08;;;-3.76;52.28
82621;BME280;72291;55.002;-1.592;2024-01-15T10:39:13;100250.42;;;-3.83;52.39
82621;BME280;72291;55.002;-1.592;2024-01-15T10:41:38;100250.09;;;-3.70;51.67
82621;BME280;72291;55.002;-1.592;2024-01-15T10:44:05;100251.08;;;-3.12;51.05
82621;BME280;72291;55.002;-1.592;2024-01-15T10:46:29;100262.87;;;-3.70;52.94
82621;BME280;72291;55.002;-1.592;2024-01-15T10:48:54;100261.45;;;-3.61;51.96
82621;BME280;72291;55.002;-1.592;2024-01-15T10:51:19;100270.38;;;-3.64;51.85
82621;BME280;72291;55.002;-1.592;2024-01-15T10:53:45;100270.32;;;-3.02;51.27
82621;BME280;72291;55.002;-1.592;2024-01-15T10:56:12;100268.99;;;-3.25;50.83
82621;BME280;72291;55.002;-1.592;2024-01-15T10:58:35;100271.32;;;-4.00;52.62
82621;BME280;72291;55.002;-1.592;2024-01-15T11:01:00;100270.53;;;-3.58;52.11
82621;BME280;72291;55.002;-1.592;2024-01-15T11:03:26;100271.96;;;-2.00;48.98
82621;BME280;72291;55.002;-1.592;2024-01-15T11:05:51;100273.01;;;-2.76;50.08
82621;BME280;72291;55.002;-1.592;2024-01-15T11:08:17;100270.34;;;-2.31;49.21
82621;BME280;72291;55.002;-1.592;2024-01-15T11:10:42;100278.56;;;-3.10;50.81
82621;BME280;72291;55.002;-1.592;2024-01-15T11:13:09;100273.10;;;-2.98;50.62
82621;BME280;72291;55.002;-1.592;2024-01-15T11:17:59;100270.88;;;-2.93;50.63
82621;BME280;72291;55.002;-1.592;2024-01-15T11:20:23;100270.41;;;-2.84;50.29
82621;BME280;72291;55.002;-1.592;2024-01-15T11:22:48;100270.27;;;-2.71;50.44
82621;BME280;72291;55.002;-1.592;2024-01-15T11:25:14;100273.04;;;-3.46;51.49
82621;BME280;72291;55.002;-1.592;2024-01-15T11:27:40;100276.44;;;-3.46;51.46
82621;BME280;72291;55.002;-1.592;2024-01-15T11:30:06;100268.93;;;-3.49;52.56
82621;BME280;72291;55.002;-1.592;2024-01-15T11:32:34;100261.47;;;-3.58;52.05
82621;BME280;72291;55.002;-1.592;2024-01-15T11:34:56;100263.00;;;-3.20;51.75
82621;BME280;72291;55.002;-1.592;2024-01-15T11:37:20;100264.86;;;-3.22;52.53
82621;BME280;72291;55.002;-1.592;2024-01-15T11:39:45;100273.41;;;-2.62;50.24
82621;BME280;72291;55.002;-1.592;2024-01-15T11:42:11;100256.19;;;-2.32;49.73
82621;BME280;72291;55.002;-1.592;2024-01-15T11:44:37;100244.42;;;-2.01;48.29
82621;BME280;72291;55.002;-1.592;2024-01-15T11:47:02;100249.62;;;-1.81;48.11
82621;BME280;72291;55.002;-1.592;2024-01-15T11:49:34;100257.56;;;-2.23;49.02
82621;BME280;72291;55.002;-1.592;2024-01-15T11:51:52;100263.02;;;-1.99;48.70
82621;BME280;72291;55.002;-1.592;2024-01-15T11:54:17;100261.19;;;-1.51;47.51
82621;BME280;72291;55.002;-1.592;2024-01-15T11:56:43;100273.87;;;-2.41;48.87
82621;BME280;72291;55.002;-1.592;2024-01-15T11:59:08;100276.63;;;-2.60;50.03
82621;BME280;72291;55.002;-1.592;2024-01-15T12:01:33;100279.29;;;-2.64;49.02
82621;BME280;72291;55.002;-1.592;2024-01-15T12:03:58;100281.43;;;-3.02;50.04
82621;BME280;72291;55.002;-1.592;2024-01-15T12:06:23;100285.63;;;-2.78;49.64
82621;BME280;72291;55.002;-1.592;2024-01-15T12:08:48;100282.38;;;-2.81;49.13
82621;BME280;72291;55.002;-1.592;2024-01-15T12:11:14;100281.08;;;-2.34;49.14
82621;BME280;72291;55.002;-1.592;2024-01-15T12:13:39;100280.53;;;-2.47;48.95
82621;BME280;72291;55.002;-1.592;2024-01-15T12:16:04;100281.13;;;-2.85;48.74
82621;BME280;72291;55.002;-1.592;2024-01-15T12:18:29;100272.45;;;-2.29;47.71
82621;BME280;72291;55.002;-1.592;2024-01-15T12:20:57;100261.89;;;-2.97;49.60
82621;BME280;72291;55.002;-1.592;2024-01-15T12:23:20;100275.66;;;-3.09;48.92
82621;BME280;72291;55.002;-1.592;2024-01-15T12:25:46;100272.65;;;-2.69;48.41
82621;BME280;72291;55.002;-1.592;2024-01-15T12:28:11;100276.19;;;-2.27;48.45
82621;BME280;72291;55.002;-1.592;2024-01-15T12:30:36;100274.02;;;-2.31;48.13
82621;BME280;72291;55.002;-1.592;2024-01-15T12:33:03;100272.21;;;-2.12;46.22